createdAt,value
2023-04-12T00:00:42.255Z,946.50
2023-04-12T00:01:42.304Z,946.50
2023-04-12T00:02:42.520Z,946.43
2023-04-12T00:03:42.330Z,946.43
2023-04-12T00:04:42.577Z,946.47
2023-04-12T00:05:42.194Z,946.45
2023-04-12T00:06:42.209Z,946.44
2023-04-12T00:07:42.178Z,946.36
2023-04-12T00:08:42.160Z,946.37
2023-04-12T00:09:42.154Z,946.34
2023-04-12T00:10:42.136Z,946.36
2023-04-12T00:11:42.153Z,946.34
2023-04-12T00:12:42.141Z,946.30
2023-04-12T00:13:42.101Z,946.23
2023-04-12T00:14:42.109Z,946.27
2023-04-12T00:15:42.118Z,946.28
2023-04-12T00:16:42.100Z,946.27
2023-04-12T00:17:42.142Z,946.26
2023-04-12T00:18:42.053Z,946.25
2023-04-12T00:19:42.077Z,946.21
2023-04-12T00:20:42.028Z,946.19
2023-04-12T00:21:42.016Z,946.18
2023-04-12T00:22:42.019Z,946.20
2023-04-12T00:23:41.993Z,946.19
2023-04-12T00:24:41.992Z,946.16
2023-04-12T00:25:41.996Z,946.15
2023-04-12T00:26:41.986Z,946.14
2023-04-12T00:27:41.947Z,946.11
2023-04-12T00:28:41.936Z,946.11
2023-04-12T00:29:41.927Z,946.13
2023-04-12T00:30:41.938Z,946.09
2023-04-12T00:31:42.048Z,946.06
2023-04-12T00:32:41.936Z,946.03
2023-04-12T00:33:41.909Z,946.07
2023-04-12T00:34:41.890Z,946.03
2023-04-12T00:35:50.945Z,946.04
2023-04-12T00:36:49.535Z,946.06
2023-04-12T00:37:50.841Z,946.01
2023-04-12T00:38:41.835Z,946.02
2023-04-12T00:39:41.831Z,945.97
2023-04-12T00:40:41.815Z,946.05
2023-04-12T00:41:41.796Z,945.98
2023-04-12T00:42:41.779Z,945.99
2023-04-12T00:43:41.834Z,945.93
2023-04-12T00:44:41.805Z,945.91
2023-04-12T00:45:41.747Z,945.89
2023-04-12T00:46:41.791Z,945.84
2023-04-12T00:47:41.744Z,945.81
2023-04-12T00:48:41.733Z,945.79
2023-04-12T00:49:41.750Z,945.76
2023-04-12T00:50:41.706Z,945.77
2023-04-12T00:51:41.678Z,945.77
2023-04-12T00:52:41.693Z,945.77
2023-04-12T00:53:41.670Z,945.77
2023-04-12T00:54:41.643Z,945.69
2023-04-12T00:55:41.672Z,945.71
2023-04-12T00:56:41.636Z,945.76
2023-04-12T00:57:41.695Z,945.77
2023-04-12T00:58:41.606Z,945.82
2023-04-12T00:59:41.592Z,945.78
2023-04-12T01:00:41.605Z,945.77
2023-04-12T01:01:42.902Z,945.72
2023-04-12T01:02:41.762Z,945.73
2023-04-12T01:03:41.633Z,945.71
2023-04-12T01:04:41.530Z,945.70
2023-04-12T01:05:41.540Z,945.72
2023-04-12T01:06:41.507Z,945.73
2023-04-12T01:07:41.544Z,945.65
2023-04-12T01:08:41.523Z,945.65
2023-04-12T01:09:41.474Z,945.67
2023-04-12T01:10:41.460Z,945.66
2023-04-12T01:11:41.481Z,945.68
2023-04-12T01:12:41.443Z,945.71
2023-04-12T01:13:41.439Z,945.71
2023-04-12T01:14:41.417Z,945.69
2023-04-12T01:15:41.405Z,945.68
2023-04-12T01:16:41.452Z,945.63
2023-04-12T01:17:41.439Z,945.68
2023-04-12T01:18:41.372Z,945.58
2023-04-12T01:19:41.389Z,945.63
2023-04-12T01:20:41.356Z,945.63
2023-04-12T01:21:41.371Z,945.57
2023-04-12T01:22:41.352Z,945.62
2023-04-12T01:23:41.320Z,945.57
2023-04-12T01:24:41.323Z,945.56
2023-04-12T01:25:41.306Z,945.56
2023-04-12T01:26:41.305Z,945.55
2023-04-12T01:27:41.321Z,945.54
2023-04-12T01:28:41.268Z,945.48
2023-04-12T01:29:41.250Z,945.47
2023-04-12T01:30:41.236Z,945.49
2023-04-12T01:31:41.302Z,945.48
2023-04-12T01:32:41.290Z,945.44
2023-04-12T01:33:41.200Z,945.44
2023-04-12T01:34:41.194Z,945.41
2023-04-12T01:35:41.250Z,945.41
2023-04-12T01:36:41.167Z,945.41
2023-04-12T01:37:41.178Z,945.43
2023-04-12T01:38:41.146Z,945.36
2023-04-12T01:39:41.138Z,945.39
2023-04-12T01:40:41.144Z,945.37
2023-04-12T01:41:41.131Z,945.37
2023-04-12T01:42:41.110Z,945.38
2023-04-12T01:43:41.126Z,945.33
2023-04-12T01:44:41.097Z,945.33
2023-04-12T01:45:41.383Z,945.32
2023-04-12T01:46:41.076Z,945.34
2023-04-12T01:47:41.176Z,945.29
2023-04-12T01:48:41.046Z,945.27
2023-04-12T01:49:41.033Z,945.30
2023-04-12T01:50:41.036Z,945.29
2023-04-12T01:51:41.024Z,945.19
2023-04-12T01:52:40.994Z,945.20
2023-04-12T01:53:41.000Z,945.23
2023-04-12T01:54:40.969Z,945.13
2023-04-12T01:55:41.069Z,945.13
2023-04-12T01:56:40.964Z,945.11
2023-04-12T01:57:40.934Z,945.07
2023-04-12T01:58:40.944Z,945.09
2023-04-12T01:59:40.927Z,945.10
2023-04-12T02:00:40.917Z,945.10
2023-04-12T02:01:40.968Z,945.08
2023-04-12T02:02:40.982Z,945.11
2023-04-12T02:03:40.987Z,945.11
2023-04-12T02:04:40.869Z,945.11
2023-04-12T02:05:41.002Z,945.11
2023-04-12T02:06:40.848Z,945.09
2023-04-12T02:07:40.843Z,945.08
2023-04-12T02:08:40.810Z,945.01
2023-04-12T02:09:40.835Z,945.02
2023-04-12T02:10:40.799Z,945.01
2023-04-12T02:11:40.785Z,944.98
2023-04-12T02:12:40.776Z,945.02
2023-04-12T02:13:40.766Z,944.96
2023-04-12T02:14:40.767Z,944.99
2023-04-12T02:15:40.737Z,944.91
2023-04-12T02:16:40.772Z,944.92
2023-04-12T02:17:40.717Z,944.89
2023-04-12T02:18:40.709Z,944.90
2023-04-12T02:19:40.717Z,944.91
2023-04-12T02:20:40.677Z,944.94
2023-04-12T02:21:40.664Z,944.88
2023-04-12T02:22:40.650Z,944.85
2023-04-12T02:23:40.664Z,944.90
2023-04-12T02:24:40.636Z,944.91
2023-04-12T02:25:40.633Z,944.93
2023-04-12T02:26:40.629Z,944.92
2023-04-12T02:27:40.597Z,944.93
2023-04-12T02:28:40.586Z,944.94
2023-04-12T02:29:40.572Z,944.91
2023-04-12T02:30:40.598Z,944.93
2023-04-12T02:31:40.552Z,944.87
2023-04-12T02:32:40.567Z,944.88
2023-04-12T02:33:40.531Z,944.84
2023-04-12T02:34:40.519Z,944.82
2023-04-12T02:35:40.543Z,944.78
2023-04-12T02:36:40.571Z,944.78
2023-04-12T02:37:40.483Z,944.79
2023-04-12T02:38:40.474Z,944.78
2023-04-12T02:39:40.483Z,944.76
2023-04-12T02:40:40.454Z,944.75
2023-04-12T02:41:40.465Z,944.76
2023-04-12T02:42:40.635Z,944.78
2023-04-12T02:43:40.418Z,944.77
2023-04-12T02:44:40.431Z,944.79
2023-04-12T02:45:40.421Z,944.73
2023-04-12T02:46:40.385Z,944.72
2023-04-12T02:47:40.438Z,944.65
2023-04-12T02:48:40.373Z,944.66
2023-04-12T02:49:40.365Z,944.65
2023-04-12T02:50:40.431Z,944.66
2023-04-12T02:51:40.330Z,944.62
2023-04-12T02:52:40.351Z,944.61
2023-04-12T02:53:40.305Z,944.57
2023-04-12T02:54:40.310Z,944.55
2023-04-12T02:55:40.299Z,944.48
2023-04-12T02:56:40.374Z,944.51
2023-04-12T02:57:40.276Z,944.49
2023-04-12T02:58:40.249Z,944.49
2023-04-12T02:59:40.257Z,944.48
2023-04-12T03:00:40.235Z,944.44
2023-04-12T03:01:40.339Z,944.46
2023-04-12T03:02:40.359Z,944.44
2023-04-12T03:03:40.350Z,944.44
2023-04-12T03:04:40.264Z,944.41
2023-04-12T03:05:40.188Z,944.41
2023-04-12T03:06:40.162Z,944.38
2023-04-12T03:07:40.155Z,944.39
2023-04-12T03:08:40.151Z,944.36
2023-04-12T03:09:40.122Z,944.36
2023-04-12T03:10:40.130Z,944.31
2023-04-12T03:11:40.114Z,944.35
2023-04-12T03:12:40.183Z,944.33
2023-04-12T03:13:40.098Z,944.33
2023-04-12T03:14:40.079Z,944.31
2023-04-12T03:15:40.131Z,944.33
2023-04-12T03:16:40.048Z,944.32
2023-04-12T03:17:40.093Z,944.26
2023-04-12T03:18:40.023Z,944.24
2023-04-12T03:19:40.017Z,944.22
2023-04-12T03:20:40.044Z,944.21
2023-04-12T03:21:39.999Z,944.24
2023-04-12T03:22:39.977Z,944.19
2023-04-12T03:23:39.965Z,944.18
2023-04-12T03:24:39.954Z,944.18
2023-04-12T03:25:40.075Z,944.22
2023-04-12T03:26:39.953Z,944.15
2023-04-12T03:27:39.964Z,944.16
2023-04-12T03:28:39.911Z,944.12
2023-04-12T03:29:39.912Z,944.11
2023-04-12T03:30:39.906Z,944.09
2023-04-12T03:31:39.918Z,944.11
2023-04-12T03:32:40.005Z,944.13
2023-04-12T03:33:39.878Z,944.10
2023-04-12T03:34:39.849Z,944.05
2023-04-12T03:35:39.870Z,944.09
2023-04-12T03:36:39.820Z,944.07
2023-04-12T03:37:39.806Z,944.06
2023-04-12T03:38:39.823Z,944.05
2023-04-12T03:39:39.795Z,944.05
2023-04-12T03:40:39.787Z,944.05
2023-04-12T03:41:39.781Z,944.04
2023-04-12T03:42:39.752Z,944.03
2023-04-12T03:43:39.760Z,943.96
2023-04-12T03:44:39.757Z,944.01
2023-04-12T03:45:39.733Z,943.98
2023-04-12T03:46:39.721Z,944.01
2023-04-12T03:47:39.717Z,944.00
2023-04-12T03:48:39.706Z,944.00
2023-04-12T03:49:39.721Z,943.99
2023-04-12T03:50:39.677Z,944.02
2023-04-12T03:51:39.666Z,943.94
2023-04-12T03:52:39.658Z,943.96
2023-04-12T03:53:39.644Z,943.93
2023-04-12T03:54:39.637Z,943.96
2023-04-12T03:55:39.625Z,943.96
2023-04-12T03:56:39.602Z,943.89
2023-04-12T03:57:39.607Z,943.90
2023-04-12T03:58:39.575Z,943.85
2023-04-12T03:59:39.567Z,943.88
2023-04-12T04:00:39.556Z,943.88
2023-04-12T04:01:39.578Z,943.88
2023-04-12T04:02:39.655Z,943.86
2023-04-12T04:03:39.710Z,943.86
2023-04-12T04:04:39.545Z,943.85
2023-04-12T04:05:39.492Z,943.87
2023-04-12T04:06:39.512Z,943.87
2023-04-12T04:07:42.644Z,943.84
2023-04-12T04:08:39.497Z,943.86
2023-04-12T04:09:39.610Z,943.87
2023-04-12T04:10:39.474Z,943.82
2023-04-12T04:11:39.428Z,943.81
2023-04-12T04:12:39.446Z,943.83
2023-04-12T04:13:39.403Z,943.80
2023-04-12T04:14:39.415Z,943.76
2023-04-12T04:15:39.390Z,943.78
2023-04-12T04:16:39.411Z,943.79
2023-04-12T04:17:39.454Z,943.79
2023-04-12T04:18:39.379Z,943.80
2023-04-12T04:19:39.440Z,943.80
2023-04-12T04:20:39.351Z,943.75
2023-04-12T04:21:39.314Z,943.79
2023-04-12T04:22:39.306Z,943.77
2023-04-12T04:23:41.337Z,943.78
2023-04-12T04:24:39.282Z,943.76
2023-04-12T04:25:39.317Z,943.77
2023-04-12T04:26:39.298Z,943.73
2023-04-12T04:27:39.250Z,943.73
2023-04-12T04:28:39.244Z,943.73
2023-04-12T04:29:39.227Z,943.69
2023-04-12T04:30:39.240Z,943.71
2023-04-12T04:31:39.309Z,943.64
2023-04-12T04:32:39.254Z,943.64
2023-04-12T04:33:39.206Z,943.62
2023-04-12T04:34:39.173Z,943.56
2023-04-12T04:35:39.189Z,943.60
2023-04-12T04:36:39.155Z,943.53
2023-04-12T04:37:39.149Z,943.52
2023-04-12T04:38:39.184Z,943.60
2023-04-12T04:39:39.127Z,943.56
2023-04-12T04:40:39.111Z,943.61
2023-04-12T04:41:39.100Z,943.62
2023-04-12T04:42:39.090Z,943.63
2023-04-12T04:43:39.100Z,943.65
2023-04-12T04:44:39.100Z,943.63
2023-04-12T04:45:39.152Z,943.66
2023-04-12T04:46:39.039Z,943.66
2023-04-12T04:47:39.079Z,943.62
2023-04-12T04:48:39.023Z,943.59
2023-04-12T04:49:39.025Z,943.55
2023-04-12T04:50:39.012Z,943.55
2023-04-12T04:51:38.988Z,943.55
2023-04-12T04:52:38.994Z,943.44
2023-04-12T04:53:38.982Z,943.45
2023-04-12T04:54:38.952Z,943.41
2023-04-12T04:55:38.958Z,943.42
2023-04-12T04:56:38.942Z,943.43
2023-04-12T04:57:38.918Z,943.43
2023-04-12T04:58:38.953Z,943.44
2023-04-12T04:59:38.896Z,943.38
2023-04-12T05:00:38.901Z,943.42
2023-04-12T05:01:39.088Z,943.40
2023-04-12T05:02:38.952Z,943.42
2023-04-12T05:03:38.968Z,943.39
2023-04-12T05:04:38.840Z,943.38
2023-04-12T05:05:38.839Z,943.42
2023-04-12T05:06:38.833Z,943.37
2023-04-12T05:07:38.820Z,943.37
2023-04-12T05:08:38.792Z,943.36
2023-04-12T05:09:38.796Z,943.35
2023-04-12T05:10:38.771Z,943.33
2023-04-12T05:11:38.753Z,943.30
2023-04-12T05:12:38.751Z,943.27
2023-04-12T05:13:38.762Z,943.30
2023-04-12T05:14:47.150Z,943.32
2023-04-12T05:15:39.709Z,943.31
2023-04-12T05:16:38.747Z,943.32
2023-04-12T05:17:38.758Z,943.29
2023-04-12T05:18:38.705Z,943.33
2023-04-12T05:19:38.670Z,943.27
2023-04-12T05:20:38.654Z,943.29
2023-04-12T05:21:38.657Z,943.30
2023-04-12T05:22:38.632Z,943.25
2023-04-12T05:23:38.638Z,943.26
2023-04-12T05:24:38.635Z,943.29
2023-04-12T05:25:38.636Z,943.26
2023-04-12T05:26:38.593Z,943.26
2023-04-12T05:27:38.569Z,943.23
2023-04-12T05:28:38.567Z,943.22
2023-04-12T05:29:38.553Z,943.21
2023-04-12T05:30:38.614Z,943.19
2023-04-12T05:31:38.569Z,943.14
2023-04-12T05:32:38.542Z,943.14
2023-04-12T05:33:38.507Z,943.14
2023-04-12T05:34:38.500Z,943.12
2023-04-12T05:35:38.530Z,943.15
2023-04-12T05:36:38.471Z,943.14
2023-04-12T05:37:38.483Z,943.15
2023-04-12T05:38:38.465Z,943.15
2023-04-12T05:39:38.440Z,943.12
2023-04-12T05:40:38.429Z,943.11
2023-04-12T05:41:38.439Z,943.07
2023-04-12T05:42:38.409Z,943.02
2023-04-12T05:43:38.436Z,943.01
2023-04-12T05:44:38.400Z,943.01
2023-04-12T05:45:38.395Z,943.01
2023-04-12T05:46:38.460Z,943.02
2023-04-12T05:47:38.386Z,943.04
2023-04-12T05:48:38.354Z,942.98
2023-04-12T05:49:38.345Z,942.96
2023-04-12T05:50:38.321Z,942.96
2023-04-12T05:51:41.697Z,942.94
2023-04-12T05:52:38.361Z,942.94
2023-04-12T05:53:38.407Z,942.94
2023-04-12T05:54:38.274Z,942.94
2023-04-12T05:55:38.379Z,943.02
2023-04-12T05:56:38.271Z,943.01
2023-04-12T05:57:38.262Z,943.03
2023-04-12T05:58:38.237Z,943.02
2023-04-12T05:59:38.223Z,942.98
2023-04-12T06:00:40.834Z,942.93
2023-04-12T06:01:38.267Z,942.87
2023-04-12T06:02:38.326Z,942.82
2023-04-12T06:03:38.390Z,942.82
2023-04-12T06:04:49.349Z,942.83
2023-04-12T06:05:39.299Z,942.85
2023-04-12T06:06:38.138Z,942.79
2023-04-12T06:07:38.186Z,942.82
2023-04-12T06:08:38.166Z,942.80
2023-04-12T06:09:38.144Z,942.72
2023-04-12T06:10:38.100Z,942.72
2023-04-12T06:11:38.092Z,942.64
2023-04-12T06:12:38.074Z,942.67
2023-04-12T06:13:38.097Z,942.66
2023-04-12T06:14:38.091Z,942.73
2023-04-12T06:15:38.069Z,942.73
2023-04-12T06:16:39.867Z,942.78
2023-04-12T06:17:38.062Z,942.72
2023-04-12T06:18:38.000Z,942.74
2023-04-12T06:19:38.024Z,942.68
2023-04-12T06:20:37.976Z,942.69
2023-04-12T06:21:37.987Z,942.73
2023-04-12T06:22:37.965Z,942.67
2023-04-12T06:23:37.983Z,942.68
2023-04-12T06:24:37.946Z,942.66
2023-04-12T06:25:37.974Z,942.71
2023-04-12T06:26:40.084Z,942.66
2023-04-12T06:27:37.900Z,942.65
2023-04-12T06:28:37.889Z,942.61
2023-04-12T06:29:37.891Z,942.58
2023-04-12T06:30:37.918Z,942.44
2023-04-12T06:31:37.943Z,942.47
2023-04-12T06:32:37.906Z,942.32
2023-04-12T06:33:37.844Z,942.44
2023-04-12T06:34:37.830Z,942.41
2023-04-12T06:35:37.858Z,942.38
2023-04-12T06:36:37.806Z,942.36
2023-04-12T06:37:37.784Z,942.26
2023-04-12T06:38:37.790Z,942.28
2023-04-12T06:39:37.755Z,942.34
2023-04-12T06:40:37.742Z,942.39
2023-04-12T06:41:37.774Z,942.35
2023-04-12T06:42:37.889Z,942.38
2023-04-12T06:43:37.720Z,942.34
2023-04-12T06:44:37.706Z,942.33
2023-04-12T06:45:37.686Z,942.27
2023-04-12T06:46:37.763Z,942.20
2023-04-12T06:47:37.726Z,942.24
2023-04-12T06:48:37.706Z,942.30
2023-04-12T06:49:37.641Z,942.34
2023-04-12T06:50:37.634Z,942.16
2023-04-12T06:51:37.636Z,942.30
2023-04-12T06:52:37.603Z,942.06
2023-04-12T06:53:37.630Z,942.11
2023-04-12T06:54:37.603Z,942.21
2023-04-12T06:55:37.583Z,942.27
2023-04-12T06:56:37.556Z,942.20
2023-04-12T06:57:37.561Z,942.24
2023-04-12T06:58:37.555Z,942.13
2023-04-12T06:59:37.530Z,942.13
2023-04-12T07:00:37.584Z,942.14
2023-04-12T07:01:37.500Z,942.06
2023-04-12T07:02:37.591Z,942.11
2023-04-12T07:03:37.610Z,942.05
2023-04-12T07:04:37.486Z,942.04
2023-04-12T07:05:37.461Z,942.07
2023-04-12T07:06:37.451Z,942.01
2023-04-12T07:07:37.447Z,941.95
2023-04-12T07:08:37.476Z,941.94
2023-04-12T07:09:37.409Z,941.89
2023-04-12T07:10:37.423Z,941.85
2023-04-12T07:11:37.388Z,941.95
2023-04-12T07:12:37.405Z,941.98
2023-04-12T07:13:37.519Z,941.97
2023-04-12T07:14:37.372Z,941.86
2023-04-12T07:15:37.364Z,941.92
2023-04-12T07:16:37.341Z,941.92
2023-04-12T07:17:46.529Z,941.91
2023-04-12T07:18:44.516Z,941.89
2023-04-12T07:19:44.968Z,941.89
2023-04-12T07:20:45.405Z,941.86
2023-04-12T07:21:44.986Z,941.84
2023-04-12T07:22:44.477Z,941.80
2023-04-12T07:23:37.259Z,941.88
2023-04-12T07:24:37.240Z,941.74
2023-04-12T07:25:37.250Z,941.76
2023-04-12T07:26:37.207Z,941.77
2023-04-12T07:27:37.221Z,941.85
2023-04-12T07:28:37.336Z,941.86
2023-04-12T07:29:37.215Z,941.76
2023-04-12T07:30:37.184Z,941.77
2023-04-12T07:31:37.165Z,941.72
2023-04-12T07:32:37.207Z,941.75
2023-04-12T07:33:38.772Z,941.75
2023-04-12T07:34:37.257Z,941.71
2023-04-12T07:35:37.127Z,941.74
2023-04-12T07:36:37.105Z,941.74
2023-04-12T07:37:37.107Z,941.70
2023-04-12T07:38:37.089Z,941.71
2023-04-12T07:39:37.140Z,941.72
2023-04-12T07:40:37.052Z,941.64
2023-04-12T07:41:37.044Z,941.66
2023-04-12T07:42:37.223Z,941.59
2023-04-12T07:43:37.106Z,941.88
2023-04-12T07:44:38.803Z,941.57
2023-04-12T07:45:37.161Z,941.64
2023-04-12T07:46:36.980Z,941.57
2023-04-12T07:47:37.004Z,941.58
2023-04-12T07:48:36.967Z,941.59
2023-04-12T07:49:36.971Z,941.52
2023-04-12T07:50:36.959Z,941.47
2023-04-12T07:51:36.931Z,941.47
2023-04-12T07:52:36.926Z,941.39
2023-04-12T07:53:36.916Z,941.40
2023-04-12T07:54:36.910Z,941.31
2023-04-12T07:55:36.908Z,941.46
2023-04-12T07:56:36.894Z,941.28
2023-04-12T07:57:36.858Z,941.27
2023-04-12T07:58:36.847Z,941.33
2023-04-12T07:59:36.862Z,941.32
2023-04-12T08:00:36.839Z,941.29
2023-04-12T08:01:36.948Z,941.30
2023-04-12T08:02:36.910Z,941.30
2023-04-12T08:03:37.005Z,941.25
2023-04-12T08:04:36.784Z,941.29
2023-04-12T08:05:36.849Z,941.25
2023-04-12T08:06:36.753Z,941.25
2023-04-12T08:07:36.759Z,941.24
2023-04-12T08:08:36.755Z,941.21
2023-04-12T08:09:36.721Z,941.17
2023-04-12T08:10:36.726Z,941.32
2023-04-12T08:11:36.720Z,941.16
2023-04-12T08:12:36.684Z,941.15
2023-04-12T08:13:36.712Z,941.16
2023-04-12T08:14:38.082Z,941.17
2023-04-12T08:15:36.671Z,941.16
2023-04-12T08:16:36.660Z,941.16
2023-04-12T08:17:36.676Z,941.15
2023-04-12T08:18:36.667Z,941.13
2023-04-12T08:19:36.626Z,941.07
2023-04-12T08:20:36.609Z,941.07
2023-04-12T08:21:36.617Z,941.13
2023-04-12T08:22:36.569Z,941.14
2023-04-12T08:23:36.561Z,941.12
2023-04-12T08:24:36.549Z,941.08
2023-04-12T08:25:36.583Z,940.99
2023-04-12T08:26:36.546Z,941.03
2023-04-12T08:27:36.515Z,941.19
2023-04-12T08:28:38.415Z,940.98
2023-04-12T08:29:36.494Z,941.06
2023-04-12T08:30:36.481Z,940.97
2023-04-12T08:31:36.502Z,940.90
2023-04-12T08:32:36.543Z,940.88
2023-04-12T08:33:36.478Z,940.82
2023-04-12T08:34:36.436Z,940.90
2023-04-12T08:35:37.031Z,940.78
2023-04-12T08:36:36.407Z,940.97
2023-04-12T08:37:36.436Z,940.86
2023-04-12T08:38:45.461Z,940.91
2023-04-12T08:39:37.375Z,940.93
2023-04-12T08:40:36.383Z,940.81
2023-04-12T08:41:37.815Z,940.76
2023-04-12T08:42:36.342Z,940.74
2023-04-12T08:43:36.343Z,940.77
2023-04-12T08:44:36.318Z,940.82
2023-04-12T08:45:36.332Z,940.79
2023-04-12T08:46:36.323Z,940.75
2023-04-12T08:47:36.337Z,940.74
2023-04-12T08:48:36.290Z,940.77
2023-04-12T08:49:36.314Z,940.81
2023-04-12T08:50:36.285Z,940.77
2023-04-12T08:51:36.248Z,940.91
2023-04-12T08:52:36.236Z,940.81
2023-04-12T08:53:36.252Z,940.82
2023-04-12T08:54:36.224Z,940.77
2023-04-12T08:55:36.212Z,941.20
2023-04-12T08:56:36.184Z,940.68
2023-04-12T08:57:36.185Z,940.74
2023-04-12T08:58:36.161Z,940.65
2023-04-12T08:59:36.151Z,940.73
2023-04-12T09:00:36.163Z,940.81
2023-04-12T09:01:36.174Z,940.82
2023-04-12T09:02:36.323Z,940.72
2023-04-12T09:03:36.244Z,940.82
2023-04-12T09:04:36.152Z,940.78
2023-04-12T09:05:36.110Z,940.84
2023-04-12T09:06:36.081Z,940.81
2023-04-12T09:07:36.059Z,940.82
2023-04-12T09:08:36.079Z,940.68
2023-04-12T09:09:36.061Z,940.76
2023-04-12T09:10:36.028Z,940.71
2023-04-12T09:11:36.015Z,940.71
2023-04-12T09:12:36.040Z,940.69
2023-04-12T09:13:35.988Z,940.75
2023-04-12T09:14:35.979Z,940.76
2023-04-12T09:15:35.970Z,940.76
2023-04-12T09:16:36.036Z,940.65
2023-04-12T09:17:36.001Z,940.72
2023-04-12T09:18:35.949Z,940.78
2023-04-12T09:19:35.941Z,940.71
2023-04-12T09:20:35.931Z,940.62
2023-04-12T09:21:35.956Z,940.74
2023-04-12T09:22:35.893Z,940.65
2023-04-12T09:23:35.896Z,940.62
2023-04-12T09:24:35.878Z,940.60
2023-04-12T09:25:35.855Z,940.60
2023-04-12T09:26:35.842Z,940.74
2023-04-12T09:27:35.844Z,940.57
2023-04-12T09:28:35.842Z,940.62
2023-04-12T09:29:35.803Z,940.65
2023-04-12T09:30:35.815Z,940.48
2023-04-12T09:31:35.809Z,940.64
2023-04-12T09:32:35.790Z,940.46
2023-04-12T09:33:35.792Z,940.50
2023-04-12T09:34:35.753Z,940.51
2023-04-12T09:35:35.867Z,940.44
2023-04-12T09:36:35.745Z,940.42
2023-04-12T09:37:35.736Z,940.43
2023-04-12T09:38:35.739Z,940.41
2023-04-12T09:39:35.729Z,940.31
2023-04-12T09:40:35.714Z,940.35
2023-04-12T09:41:35.680Z,940.27
2023-04-12T09:42:35.663Z,940.33
2023-04-12T09:43:35.645Z,940.37
2023-04-12T09:44:35.689Z,940.29
2023-04-12T09:45:35.633Z,940.28
2023-04-12T09:46:35.639Z,940.26
2023-04-12T09:47:35.614Z,940.28
2023-04-12T09:48:35.595Z,940.21
2023-04-12T09:49:35.607Z,940.16
2023-04-12T09:50:35.559Z,940.20
2023-04-12T09:51:35.551Z,940.17
2023-04-12T09:52:35.542Z,940.04
2023-04-12T09:53:35.553Z,939.97
2023-04-12T09:54:35.569Z,940.06
2023-04-12T09:55:35.510Z,940.05
2023-04-12T09:56:35.495Z,939.98
2023-04-12T09:57:35.502Z,940.08
2023-04-12T09:58:35.469Z,940.06
2023-04-12T09:59:35.474Z,940.05
2023-04-12T10:00:35.502Z,939.96
2023-04-12T10:01:35.493Z,940.00
2023-04-12T10:02:35.580Z,939.90
2023-04-12T10:03:35.474Z,939.96
2023-04-12T10:04:35.457Z,939.90
2023-04-12T10:05:35.728Z,939.94
2023-04-12T10:06:35.397Z,939.89
2023-04-12T10:07:35.403Z,939.86
2023-04-12T10:08:35.367Z,939.80
2023-04-12T10:09:35.453Z,939.76
2023-04-12T10:10:35.371Z,939.67
2023-04-12T10:11:35.327Z,939.74
2023-04-12T10:12:35.323Z,939.71
2023-04-12T10:13:35.310Z,939.82
2023-04-12T10:14:35.299Z,939.77
2023-04-12T10:15:35.289Z,939.65
2023-04-12T10:16:35.409Z,939.66
2023-04-12T10:17:35.280Z,939.61
2023-04-12T10:18:35.256Z,939.59
2023-04-12T10:19:35.248Z,939.55
2023-04-12T10:20:35.214Z,939.51
2023-04-12T10:21:35.227Z,939.54
2023-04-12T10:22:35.234Z,939.58
2023-04-12T10:23:35.177Z,939.50
2023-04-12T10:24:35.202Z,939.52
2023-04-12T10:25:35.202Z,939.56
2023-04-12T10:26:35.141Z,939.58
2023-04-12T10:27:35.150Z,939.54
2023-04-12T10:28:35.147Z,939.51
2023-04-12T10:29:35.109Z,939.50
2023-04-12T10:30:35.155Z,939.46
2023-04-12T10:31:35.160Z,939.49
2023-04-12T10:32:35.606Z,939.57
2023-04-12T10:33:35.093Z,939.47
2023-04-12T10:34:35.113Z,939.43
2023-04-12T10:35:35.059Z,939.52
2023-04-12T10:36:35.254Z,939.50
2023-04-12T10:37:35.023Z,939.45
2023-04-12T10:38:36.262Z,939.47
2023-04-12T10:39:35.031Z,939.32
2023-04-12T10:40:34.999Z,939.31
2023-04-12T10:41:35.048Z,939.29
2023-04-12T10:42:34.980Z,939.28
2023-04-12T10:43:34.973Z,939.28
2023-04-12T10:44:34.941Z,939.27
2023-04-12T10:45:34.948Z,939.27
2023-04-12T10:46:35.018Z,939.25
2023-04-12T10:47:34.982Z,939.20
2023-04-12T10:48:34.960Z,939.17
2023-04-12T10:49:34.908Z,939.17
2023-04-12T10:50:34.890Z,939.18
2023-04-12T10:51:34.868Z,939.21
2023-04-12T10:52:34.877Z,939.26
2023-04-12T10:53:34.861Z,939.16
2023-04-12T10:54:34.828Z,939.18
2023-04-12T10:55:34.854Z,939.10
2023-04-12T10:56:34.802Z,939.08
2023-04-12T10:57:34.854Z,939.08
2023-04-12T10:58:34.847Z,938.98
2023-04-12T10:59:46.993Z,938.95
2023-04-12T11:00:35.828Z,938.96
2023-04-12T11:01:38.407Z,938.97
2023-04-12T11:02:34.959Z,938.95
2023-04-12T11:03:34.944Z,938.95
2023-04-12T11:04:34.947Z,938.83
2023-04-12T11:05:34.862Z,938.76
2023-04-12T11:06:34.705Z,938.77
2023-04-12T11:07:34.691Z,938.74
2023-04-12T11:08:34.691Z,938.88
2023-04-12T11:09:34.687Z,938.72
2023-04-12T11:10:34.668Z,938.84
2023-04-12T11:11:34.665Z,938.63
2023-04-12T11:12:34.620Z,938.67
2023-04-12T11:13:34.627Z,938.81
2023-04-12T11:14:34.607Z,938.68
2023-04-12T11:15:34.601Z,938.70
2023-04-12T11:16:34.677Z,938.62
2023-04-12T11:17:37.667Z,938.61
2023-04-12T11:18:34.609Z,938.63
2023-04-12T11:19:34.548Z,938.68
2023-04-12T11:20:34.518Z,938.69
2023-04-12T11:21:34.525Z,938.73
2023-04-12T11:22:34.531Z,938.66
2023-04-12T11:23:34.499Z,938.68
2023-04-12T11:24:34.537Z,938.67
2023-04-12T11:25:34.507Z,938.56
2023-04-12T11:26:34.454Z,938.59
2023-04-12T11:27:34.445Z,938.60
2023-04-12T11:28:35.538Z,938.56
2023-04-12T11:29:34.456Z,938.50
2023-04-12T11:30:34.429Z,938.48
2023-04-12T11:31:34.445Z,938.50
2023-04-12T11:32:34.418Z,938.51
2023-04-12T11:33:34.369Z,938.52
2023-04-12T11:34:34.383Z,938.38
2023-04-12T11:35:34.389Z,938.42
2023-04-12T11:36:34.349Z,938.44
2023-04-12T11:37:34.358Z,938.48
2023-04-12T11:38:34.322Z,938.53
2023-04-12T11:39:34.325Z,938.43
2023-04-12T11:40:34.312Z,938.39
2023-04-12T11:41:34.278Z,938.35
2023-04-12T11:42:34.305Z,938.40
2023-04-12T11:43:34.256Z,938.27
2023-04-12T11:44:52.059Z,938.32
2023-04-12T11:45:35.250Z,938.26
2023-04-12T11:46:34.255Z,938.26
2023-04-12T11:47:34.220Z,938.23
2023-04-12T11:48:34.223Z,938.18
2023-04-12T11:49:34.225Z,938.16
2023-04-12T11:50:34.198Z,938.18
2023-04-12T11:51:34.168Z,938.19
2023-04-12T11:52:34.154Z,938.12
2023-04-12T11:53:34.141Z,938.22
2023-04-12T11:54:34.164Z,938.13
2023-04-12T11:55:34.116Z,938.15
2023-04-12T11:56:34.133Z,938.16
2023-04-12T11:57:34.096Z,938.08
2023-04-12T11:58:34.090Z,938.18
2023-04-12T11:59:34.072Z,938.15
2023-04-12T12:00:34.073Z,938.17
2023-04-12T12:01:34.087Z,938.25
2023-04-12T12:02:43.053Z,938.28
2023-04-12T12:03:35.369Z,938.28
2023-04-12T12:04:34.509Z,938.26
2023-04-12T12:05:34.297Z,938.15
2023-04-12T12:06:34.261Z,938.23
2023-04-12T12:07:34.091Z,938.17
2023-04-12T12:08:33.991Z,938.08
2023-04-12T12:09:33.971Z,938.03
2023-04-12T12:10:46.357Z,938.04
2023-04-12T12:11:34.930Z,938.00
2023-04-12T12:12:33.949Z,937.98
2023-04-12T12:13:33.928Z,937.93
2023-04-12T12:14:33.897Z,938.03
2023-04-12T12:15:33.969Z,938.06
2023-04-12T12:16:33.913Z,938.07
2023-04-12T12:17:33.906Z,938.03
2023-04-12T12:18:33.868Z,937.90
2023-04-12T12:19:33.874Z,938.00
2023-04-12T12:20:33.851Z,937.96
2023-04-12T12:21:33.819Z,937.93
2023-04-12T12:22:33.805Z,938.09
2023-04-12T12:23:33.820Z,937.95
2023-04-12T12:24:35.951Z,937.88
2023-04-12T12:25:33.779Z,937.94
2023-04-12T12:26:33.759Z,938.03
2023-04-12T12:27:33.880Z,937.99
2023-04-12T12:28:33.757Z,937.91